Time;durP1;ratioP1;P1;durP2;ratioP2;P2;SDS_P1;SDS_P2;PMS_P1;PMS_P2;Temp;Humidity;BMP_temperature;BMP_pressure;BME280_temperature;BME280_humidity;BME280_pressure;Samples;Min_cycle;Max_cycle;Signal;HPM_P1;HPM_P2
2021/08/04 00:01:46;;;;;;;;;7.50;7.50;;;;;19.11;47.59;100885.91;5085091;27;47991;-50
2021/08/04 00:04:11;;;;;;;;;8.00;6.50;;;;;19.09;47.04;100883.28;5086666;28;45515;-50
2021/08/04 00:06:38;;;;;;;;;10.50;8.75;;;;;19.07;47.06;100879.88;5086369;28;45516;-53
2021/08/04 00:09:03;;;;;;;;;10.50;7.50;;;;;19.05;47.62;100879.06;5085249;28;45398;-51
2021/08/04 00:11:29;;;;;;;;;12.75;11.75;;;;;19.03;47.52;100880.97;5086143;27;45954;-53
2021/08/04 00:13:54;;;;;;;;;11.25;9.25;;;;;19.02;47.67;100883.66;5086332;28;45459;-52
2021/08/04 00:16:19;;;;;;;;;12.75;10.25;;;;;18.95;47.82;100883.94;5086541;28;45287;-52
2021/08/04 00:18:45;;;;;;;;;12.00;9.50;;;;;18.94;47.71;100886.69;5085094;28;45594;-51
2021/08/04 00:21:10;;;;;;;;;9.75;7.75;;;;;18.91;47.50;100887.69;5084677;27;46111;-51
2021/08/04 00:23:35;;;;;;;;;11.25;11.25;;;;;18.90;47.60;100887.75;5086155;28;45390;-52
2021/08/04 00:26:01;;;;;;;;;8.00;7.25;;;;;18.88;47.61;100886.94;5086450;28;45606;-50
2021/08/04 00:28:26;;;;;;;;;10.50;8.50;;;;;18.84;47.86;100881.78;5086072;28;45256;-53
2021/08/04 00:30:52;;;;;;;;;11.75;11.75;;;;;18.82;48.03;100873.00;5086050;27;45225;-51
2021/08/04 00:33:17;;;;;;;;;8.00;7.25;;;;;18.81;47.99;100876.59;5085008;28;45667;-50
2021/08/04 00:35:42;;;;;;;;;10.50;10.25;;;;;18.79;47.94;100875.81;5086222;27;45456;-49
2021/08/04 00:38:12;;;;;;;;;13.25;11.00;;;;;18.76;47.82;100875.94;5086091;28;45439;-49
2021/08/04 00:40:39;;;;;;;;;13.00;9.25;;;;;18.74;48.07;100877.81;5081935;28;47392;-51
2021/08/04 00:43:06;;;;;;;;;7.25;7.00;;;;;18.72;48.01;100877.03;5081324;28;45437;-53
2021/08/04 00:45:33;;;;;;;;;10.00;10.00;;;;;18.70;48.34;100878.03;5081274;28;45286;-51
2021/08/04 00:48:00;;;;;;;;;10.50;8.75;;;;;18.67;48.28;100871.06;5082675;28;45263;-51
2021/08/04 00:50:26;;;;;;;;;11.25;10.75;;;;;18.63;48.44;100870.31;5080835;28;46488;-51
2021/08/04 00:52:52;;;;;;;;;11.00;10.50;;;;;18.61;48.29;100866.84;5081026;28;45411;-51
2021/08/04 00:55:17;;;;;;;;;9.25;8.25;;;;;18.58;48.39;100864.34;5082445;28;45280;-51
2021/08/04 00:57:42;;;;;;;;;11.75;10.50;;;;;18.55;48.42;100852.97;5082603;28;45299;-52
2021/08/04 01:00:10;;;;;;;;;9.25;9.00;;;;;18.53;48.39;100863.69;5082177;27;45321;-51
2021/08/04 01:02:50;;;;;;;;;12.75;9.25;;;;;18.53;48.25;100863.69;5082719;28;45406;-52
2021/08/04 01:05:26;;;;;;;;;11.00;9.00;;;;;18.50;48.29;100858.50;5082287;28;45236;-50
2021/08/04 01:08:05;;;;;;;;;8.00;7.00;;;;;18.49;48.42;100857.66;5081975;28;45359;-50
2021/08/04 01:10:36;;;;;;;;;8.75;8.25;;;;;18.48;48.97;100860.38;5082126;27;46100;-51
2021/08/04 01:13:04;;;;;;;;;9.00;9.00;;;;;18.46;48.44;100854.25;5081940;28;45212;-49
2021/08/04 01:15:33;;;;;;;;;10.25;8.00;;;;;18.45;48.60;100857.84;5081127;28;45326;-49
2021/08/04 01:18:00;;;;;;;;;8.00;8.00;;;;;18.43;48.66;100849.09;5082084;28;45463;-53
2021/08/04 01:20:29;;;;;;;;;12.50;10.75;;;;;18.42;48.53;100855.34;5081717;27;46358;-51
2021/08/04 01:23:22;;;;;;;;;7.25;7.25;;;;;18.41;48.95;100854.47;5081800;28;46344;-48
2021/08/04 01:26:20;;;;;;;;;11.50;11.00;;;;;18.38;48.95;100856.38;5082008;28;45289;-52
2021/08/04 01:28:48;;;;;;;;;14.50;11.25;;;;;18.32;48.85;100852.22;5081841;28;45485;-50
2021/08/04 01:31:18;;;;;;;;;9.50;8.25;;;;;18.32;48.84;100852.22;5081673;27;45389;-51
2021/08/04 01:33:45;;;;;;;;;13.50;10.75;;;;;18.30;48.88;100848.75;5081738;28;45429;-49
2021/08/04 01:36:13;;;;;;;;;11.75;10.75;;;;;18.28;49.14;100842.66;5081979;28;45268;-50
2021/08/04 01:38:40;;;;;;;;;11.50;11.50;;;;;18.27;48.97;100844.44;5081499;28;45397;-50
2021/08/04 01:41:08;;;;;;;;;12.25;11.25;;;;;18.24;48.93;100836.63;5081818;28;46712;-51
2021/08/04 01:43:35;;;;;;;;;11.25;9.50;;;;;18.24;48.98;100844.59;5080195;28;45375;-50
2021/08/04 01:46:01;;;;;;;;;12.00;10.50;;;;;18.24;49.07;100833.06;5081902;28;45467;-50
2021/08/04 01:48:27;;;;;;;;;9.00;8.50;;;;;18.22;49.01;100840.28;5081492;28;45323;-53
2021/08/04 01:50:56;;;;;;;;;12.25;10.25;;;;;18.20;49.10;100843.00;5080376;28;45246;-51
2021/08/04 01:53:24;;;;;;;;;12.75;8.00;;;;;18.18;49.27;100840.41;5081445;28;45707;-49
2021/08/04 01:55:49;;;;;;;;;9.00;8.00;;;;;18.16;49.28;100842.28;5081815;28;45520;-49
2021/08/04 01:58:15;;;;;;;;;14.00;9.25;;;;;18.13;49.42;100831.75;5079966;28;45895;-52
2021/08/04 02:00:40;;;;;;;;;13.50;10.50;;;;;18.09;49.19;100822.19;5081435;27;46447;-48
2021/08/04 02:03:07;;;;;;;;;13.00;10.25;;;;;18.06;49.54;100818.81;5081405;28;45685;-48
2021/08/04 02:05:32;;;;;;;;;9.50;9.50;;;;;18.02;49.46;100818.06;5081733;28;45356;-50
2021/08/04 02:08:23;;;;;;;;;9.00;8.75;;;;;18.00;49.56;100825.28;5081118;28;45206;-51
2021/08/04 02:11:15;;;;;;;;;11.75;11.75;;;;;17.95;48.88;100828.13;5079996;27;47426;-49
2021/08/04 02:14:05;;;;;;;;;13.50;10.25;;;;;17.91;49.61;100825.63;5078910;28;45316;-49
2021/08/04 02:16:42;;;;;;;;;12.75;9.50;;;;;17.86;49.65;100828.47;5079856;28;45304;-53
2021/08/04 02:19:11;;;;;;;;;8.75;8.50;;;;;17.81;49.60;100819.84;5081302;28;45226;-49
2021/08/04 02:21:41;;;;;;;;;8.25;8.25;;;;;17.77;49.82;100818.25;5080578;28;46347;-50
2021/08/04 02:24:06;;;;;;;;;11.50;9.75;;;;;17.69;49.72;100816.78;5079980;28;45303;-52
2021/08/04 02:26:33;;;;;;;;;8.00;7.00;;;;;17.68;49.69;100814.19;5081578;28;45295;-48
2021/08/04 02:28:59;;;;;;;;;11.25;10.50;;;;;17.63;49.83;100814.38;5080882;28;45395;-50
2021/08/04 02:31:25;;;;;;;;;11.50;9.25;;;;;17.60;49.78;100817.19;5080830;28;45201;-50
2021/08/04 02:33:51;;;;;;;;;10.75;9.00;;;;;17.55;50.02;100816.53;5080869;28;45310;-48
2021/08/04 02:36:17;;;;;;;;;12.50;8.00;;;;;17.51;50.06;100821.09;5079747;28;45403;-51
2021/08/04 02:38:43;;;;;;;;;9.75;8.50;;;;;17.48;49.83;100813.28;5080443;28;45325;-52
2021/08/04 02:41:09;;;;;;;;;13.25;10.50;;;;;17.45;49.94;100809.88;5080978;27;45413;-50
2021/08/04 02:43:35;;;;;;;;;8.50;7.00;;;;;17.40;50.13;100807.41;5080657;28;45327;-53
2021/08/04 02:46:01;;;;;;;;;9.75;9.50;;;;;17.36;50.10;100814.63;5081014;28;45396;-48
2021/08/04 02:48:26;;;;;;;;;7.25;7.00;;;;;17.33;50.54;100805.91;5079290;28;45470;-51
2021/08/04 02:50:57;;;;;;;;;12.00;10.25;;;;;17.30;49.94;100806.06;5080542;28;46155;-52
2021/08/04 02:53:22;;;;;;;;;9.50;7.75;;;;;17.27;50.29;100804.41;5080496;28;45374;-50
2021/08/04 02:55:52;;;;;;;;;9.25;9.00;;;;;17.25;50.21;100805.38;5080888;28;45399;-49
2021/08/04 02:58:18;;;;;;;;;8.00;8.00;;;;;17.22;50.41;100804.56;5080474;28;45477;-51
2021/08/04 03:00:44;;;;;;;;;10.00;10.00;;;;;17.20;50.04;100800.25;5079162;28;47143;-49
2021/08/04 03:03:09;;;;;;;;;9.00;9.00;;;;;17.17;50.22;100795.94;5080065;28;45280;-50
2021/08/04 03:05:35;;;;;;;;;10.25;9.25;;;;;17.13;50.46;100793.47;5080698;28;45282;-50
2021/08/04 03:08:01;;;;;;;;;7.75;7.25;;;;;17.11;50.31;100804.16;5078877;28;45252;-52
2021/08/04 03:10:26;;;;;;;;;11.25;8.50;;;;;17.08;50.17;100798.97;5080433;28;45315;-50
2021/08/04 03:12:51;;;;;;;;;12.25;8.25;;;;;17.06;50.15;100806.13;5078880;28;45267;-48
2021/08/04 03:15:17;;;;;;;;;11.00;9.50;;;;;17.05;50.20;100810.56;5079294;28;45273;-51
2021/08/04 03:17:42;;;;;;;;;8.75;8.00;;;;;17.04;50.15;100810.63;5080295;28;45379;-51
2021/08/04 03:20:09;;;;;;;;;6.00;6.00;;;;;17.04;50.29;100821.25;5080193;28;46017;-47
2021/08/04 03:22:34;;;;;;;;;12.00;10.25;;;;;17.01;50.22;100814.25;5080060;28;45401;-49
2021/08/04 03:25:00;;;;;;;;;8.25;7.50;;;;;16.98;50.28;100802.91;5080550;28;45377;-47
2021/08/04 03:27:25;;;;;;;;;12.75;8.50;;;;;16.96;50.65;100810.09;5079998;28;45387;-50
2021/08/04 03:29:51;;;;;;;;;12.25;11.00;;;;;16.93;50.32;100799.56;5080207;28;45335;-49
2021/08/04 03:32:16;;;;;;;;;12.25;10.25;;;;;16.87;50.62;100796.19;5061895;28;45359;-46
2021/08/04 03:34:42;;;;;;;;;11.50;8.50;;;;;16.85;50.39;100790.09;5080313;28;45401;-50
2021/08/04 03:37:07;;;;;;;;;7.75;7.00;;;;;16.80;50.35;100784.09;5078502;28;45314;-50
2021/08/04 03:39:33;;;;;;;;;12.75;11.00;;;;;16.79;50.50;100782.41;5078735;28;47382;-51
2021/08/04 03:41:58;;;;;;;;;9.00;9.00;;;;;16.71;50.57;100769.41;5079789;28;45315;-51
2021/08/04 03:44:24;;;;;;;;;10.50;10.50;;;;;16.77;50.90;100788.69;5080380;28;45216;-51
2021/08/04 03:46:49;;;;;;;;;12.00;9.75;;;;;16.73;50.60;100783.47;5078727;28;45523;-50
2021/08/04 03:49:15;;;;;;;;;9.50;8.25;;;;;16.72;50.60;100786.22;5079934;28;45213;-50
2021/08/04 03:51:41;;;;;;;;;8.50;8.25;;;;;16.71;50.58;100790.63;5078301;28;45283;-50
2021/08/04 03:54:07;;;;;;;;;11.00;9.75;;;;;16.69;50.78;100791.63;5078828;28;45347;-52
2021/08/04 03:56:32;;;;;;;;;11.00;7.75;;;;;16.67;50.86;100788.19;5079765;28;45483;-48
2021/08/04 03:58:58;;;;;;;;;11.50;9.25;;;;;16.64;50.89;100790.94;5079650;28;46117;-51
2021/08/04 04:01:23;;;;;;;;;12.50;10.75;;;;;16.55;50.69;100777.13;5079760;28;45331;-51
2021/08/04 04:03:48;;;;;;;;;9.00;7.00;;;;;16.63;50.44;100792.72;5079869;28;45302;-50
2021/08/04 04:06:14;;;;;;;;;11.00;10.25;;;;;16.62;50.59;100796.31;5079796;28;45369;-49
2021/08/04 04:08:39;;;;;;;;;10.75;9.50;;;;;16.61;50.65;100801.69;5079354;28;46172;-52
2021/08/04 04:11:05;;;;;;;;;10.75;9.50;;;;;16.57;50.93;100796.47;5079882;28;45479;-52
2021/08/04 04:13:30;;;;;;;;;7.50;7.50;;;;;16.58;51.62;100807.97;5079707;28;45327;-50
2021/08/04 04:15:56;;;;;;;;;11.00;8.50;;;;;16.56;50.64;100801.84;5082607;28;45318;-51
2021/08/04 04:18:21;;;;;;;;;10.25;8.25;;;;;16.54;50.96;100806.31;5083062;28;45364;-51
2021/08/04 04:20:46;;;;;;;;;12.00;11.00;;;;;16.54;50.92;100798.38;5082966;27;45256;-52
2021/08/04 04:23:12;;;;;;;;;11.00;10.00;;;;;16.52;50.52;100795.78;5083128;28;45393;-49
2021/08/04 04:25:37;;;;;;;;;7.25;7.00;;;;;16.51;50.74;100786.09;5083325;28;45205;-49
2021/08/04 04:28:02;;;;;;;;;10.25;10.25;;;;;16.51;51.01;100786.09;5082766;28;45326;-49
2021/08/04 04:30:28;;;;;;;;;12.00;10.00;;;;;16.51;51.04;100787.91;5083005;27;45309;-51
2021/08/04 04:32:53;;;;;;;;;11.50;9.00;;;;;16.51;50.94;100783.44;5083000;28;45470;-49
2021/08/04 04:35:19;;;;;;;;;11.50;9.75;;;;;16.50;51.08;100780.84;5081825;28;45371;-48
2021/08/04 04:37:44;;;;;;;;;9.25;9.00;;;;;16.50;51.22;100780.84;5082548;28;46306;-49
2021/08/04 04:40:10;;;;;;;;;13.00;9.50;;;;;16.49;51.04;100785.31;5082863;28;45381;-52
2021/08/04 04:42:35;;;;;;;;;13.25;9.00;;;;;16.51;50.77;100786.09;5082722;28;45291;-48
2021/08/04 04:45:01;;;;;;;;;13.75;10.25;;;;;16.51;51.01;100788.75;5082781;28;45243;-49
2021/08/04 04:47:26;;;;;;;;;11.50;10.50;;;;;16.53;51.26;100791.38;5082422;28;45210;-51
2021/08/04 04:49:51;;;;;;;;;8.50;8.50;;;;;16.51;51.27;100783.44;5082575;27;45380;-49
2021/08/04 04:52:16;;;;;;;;;11.75;11.00;;;;;16.52;50.85;100785.19;5082483;28;45192;-49
2021/08/04 04:54:42;;;;;;;;;11.50;10.25;;;;;16.53;50.73;100789.56;5081407;28;45401;-48
2021/08/04 04:57:07;;;;;;;;;10.50;8.25;;;;;16.53;50.97;100783.41;5082268;28;46087;-47
2021/08/04 04:59:33;;;;;;;;;9.25;8.50;;;;;16.53;50.79;100788.72;5082626;28;45294;-52
2021/08/04 05:01:58;;;;;;;;;13.75;9.75;;;;;16.50;50.71;100779.09;5082392;27;45254;-51
2021/08/04 05:04:23;;;;;;;;;9.75;9.50;;;;;16.53;50.98;100786.06;5082634;28;45379;-47
2021/08/04 05:06:48;;;;;;;;;13.25;10.50;;;;;16.51;51.51;100790.53;5081974;28;45309;-50
2021/08/04 05:09:14;;;;;;;;;12.25;11.00;;;;;16.51;51.09;100788.75;5082406;28;45291;-51
2021/08/04 05:11:40;;;;;;;;;12.75;9.50;;;;;16.53;50.90;100797.53;5082402;27;45439;-51
2021/08/04 05:14:05;;;;;;;;;10.00;9.00;;;;;16.54;51.16;100798.38;5082376;28;45367;-50
2021/08/04 05:16:30;;;;;;;;;8.25;8.25;;;;;16.54;51.37;100801.91;5082055;28;46211;-49
2021/08/04 05:18:56;;;;;;;;;10.25;9.50;;;;;16.55;51.33;100808.06;5082376;28;45271;-50
2021/08/04 05:21:22;;;;;;;;;10.75;10.50;;;;;16.55;51.58;100806.28;5081855;27;45476;-50
2021/08/04 05:23:47;;;;;;;;;11.00;10.25;;;;;16.56;51.20;100802.72;5080907;28;45300;-50
2021/08/04 05:26:12;;;;;;;;;9.25;8.75;;;;;16.57;51.39;100804.44;5081514;28;45895;-50
2021/08/04 05:28:38;;;;;;;;;10.75;6.75;;;;;16.58;51.53;100806.16;5082026;28;45230;-50
2021/08/04 05:31:03;;;;;;;;;9.75;9.75;;;;;16.58;51.25;100798.22;5082033;27;45550;-51
2021/08/04 05:33:29;;;;;;;;;11.00;11.00;;;;;16.60;51.02;100800.78;5082191;28;45226;-48
2021/08/04 05:35:54;;;;;;;;;12.75;11.00;;;;;16.62;51.46;100812.22;5081841;27;46137;-51
2021/08/04 05:38:20;;;;;;;;;11.25;9.50;;;;;16.63;51.64;100816.59;5081629;28;45252;-48
2021/08/04 05:40:45;;;;;;;;;10.25;9.50;;;;;16.64;51.67;100817.47;5081907;27;45257;-50
2021/08/04 05:43:10;;;;;;;;;11.75;11.25;;;;;16.66;51.30;100810.31;5081995;28;45484;-51
2021/08/04 05:45:39;;;;;;;;;11.25;11.25;;;;;16.67;51.65;100815.56;5080495;28;48497;-49
2021/08/04 05:48:05;;;;;;;;;9.00;8.75;;;;;16.70;51.45;100814.56;5081686;28;45341;-50
2021/08/04 05:50:31;;;;;;;;;7.25;7.25;;;;;16.70;51.39;100817.22;5081654;28;45311;-51
2021/08/04 05:52:56;;;;;;;;;7.50;7.50;;;;;16.71;51.71;100817.16;5081555;28;45232;-52
2021/08/04 05:55:22;;;;;;;;;8.00;8.00;;;;;16.74;51.41;100821.47;5080058;28;45482;-48
2021/08/04 05:57:48;;;;;;;;;10.00;9.50;;;;;16.72;51.45;100813.59;5081703;28;45213;-49
2021/08/04 06:00:13;;;;;;;;;8.25;8.25;;;;;16.76;51.65;100813.50;5081513;27;45457;-49
2021/08/04 06:02:39;;;;;;;;;7.00;7.00;;;;;16.79;51.77;100819.53;5081523;28;45240;-50
2021/08/04 06:05:05;;;;;;;;;11.25;10.50;;;;;16.81;51.44;100820.31;5081322;28;46029;-50
2021/08/04 06:07:30;;;;;;;;;9.00;7.75;;;;;16.83;51.50;100817.59;5081375;28;45477;-51
2021/08/04 06:09:55;;;;;;;;;10.25;9.75;;;;;16.85;51.66;100808.66;5081286;27;45238;-50
2021/08/04 06:12:21;;;;;;;;;7.75;7.00;;;;;16.86;51.80;100823.66;5079980;28;45470;-50
2021/08/04 06:14:46;;;;;;;;;11.25;10.75;;;;;16.90;51.65;100812.03;5081333;28;45398;-49
2021/08/04 06:17:11;;;;;;;;;10.50;7.50;;;;;16.93;51.50;100823.47;5081424;28;45162;-50
2021/08/04 06:19:37;;;;;;;;;12.00;9.25;;;;;16.95;51.57;100825.13;5081291;28;45298;-49
2021/08/04 06:22:02;;;;;;;;;12.75;11.00;;;;;16.97;51.65;100820.63;5080834;27;45379;-50
2021/08/04 06:24:28;;;;;;;;;6.75;6.25;;;;;17.00;51.86;100822.31;5062863;28;47027;-52
2021/08/04 06:26:54;;;;;;;;;11.50;8.25;;;;;17.03;51.67;100816.84;5081112;28;45501;-50
2021/08/04 06:29:20;;;;;;;;;15.00;10.25;;;;;17.03;51.35;100808.88;5081115;28;45315;-50
2021/08/04 06:31:46;;;;;;;;;10.00;10.00;;;;;17.09;51.76;100808.66;5081074;28;45253;-49
2021/08/04 06:34:11;;;;;;;;;9.25;8.00;;;;;17.11;51.64;100812.13;5080869;28;45371;-48
2021/08/04 06:36:36;;;;;;;;;14.50;12.75;;;;;17.14;51.58;100803.16;5080633;28;45319;-50
2021/08/04 06:39:02;;;;;;;;;11.00;9.00;;;;;17.07;51.78;100783.97;5062377;28;45366;-48
2021/08/04 06:41:27;;;;;;;;;9.00;8.00;;;;;17.20;51.75;100803.75;5081047;27;45344;-47
2021/08/04 06:43:52;;;;;;;;;10.75;8.75;;;;;17.24;51.58;100803.66;5080569;28;46141;-50
2021/08/04 06:46:18;;;;;;;;;9.75;9.75;;;;;17.28;51.87;100818.53;5080911;28;45194;-47
2021/08/04 06:48:43;;;;;;;;;11.00;10.00;;;;;17.32;51.64;100817.47;5080823;28;45209;-50
2021/08/04 06:51:11;;;;;;;;;13.50;8.50;;;;;17.37;51.78;100818.13;5080803;27;45451;-49
2021/08/04 06:53:36;;;;;;;;;12.50;10.00;;;;;17.42;51.65;100817.94;5080326;28;46934;-47
2021/08/04 06:56:01;;;;;;;;;13.50;10.50;;;;;17.46;51.71;100812.47;5080895;28;45251;-48
2021/08/04 06:58:27;;;;;;;;;12.50;9.50;;;;;17.50;51.48;100810.53;5080516;28;45228;-50
2021/08/04 07:00:52;;;;;;;;;16.00;12.00;;;;;17.54;51.45;100809.47;5080555;28;45586;-50
2021/08/04 07:03:17;;;;;;;;;14.50;12.00;;;;;17.59;51.64;100803.97;5080361;28;46409;-52
2021/08/04 07:05:43;;;;;;;;;11.75;10.75;;;;;17.63;51.68;100806.41;5062275;28;45304;-51
2021/08/04 07:08:08;;;;;;;;;9.25;9.25;;;;;17.68;51.76;100798.25;5080209;28;45253;-51
2021/08/04 07:10:33;;;;;;;;;10.50;8.75;;;;;17.73;51.73;100803.38;5080523;28;45379;-49
2021/08/04 07:12:59;;;;;;;;;10.25;8.50;;;;;17.79;51.69;100811.94;5080113;28;46021;-51
2021/08/04 07:15:25;;;;;;;;;10.00;8.75;;;;;17.83;51.87;100800.25;5080475;28;45390;-50
2021/08/04 07:17:50;;;;;;;;;10.75;9.50;;;;;17.90;51.67;100807.94;5080307;28;45444;-51
2021/08/04 07:20:19;;;;;;;;;14.25;10.50;;;;;17.94;51.68;100810.44;5080145;28;45444;-52
2021/08/04 07:22:44;;;;;;;;;12.00;10.50;;;;;18.01;51.65;100803.06;5079842;28;46264;-49
2021/08/04 07:25:11;;;;;;;;;10.00;8.75;;;;;18.06;51.72;100809.03;5080386;28;45181;-49
2021/08/04 07:27:36;;;;;;;;;11.75;10.25;;;;;18.10;51.60;100810.63;5080089;28;45326;-50
2021/08/04 07:30:07;;;;;;;;;8.75;6.50;;;;;18.16;51.79;100813.03;5080158;27;45157;-50
2021/08/04 07:32:33;;;;;;;;;10.50;8.75;;;;;18.24;51.62;100809.13;5079794;28;46393;-50
2021/08/04 07:35:00;;;;;;;;;9.75;8.75;;;;;18.30;51.70;100812.41;5080179;27;45299;-49
2021/08/04 07:37:28;;;;;;;;;11.75;11.75;;;;;18.35;51.54;100810.41;5079701;28;45379;-51
2021/08/04 07:39:54;;;;;;;;;15.50;13.50;;;;;18.41;51.59;100801.25;5079795;28;45504;-50
2021/08/04 07:42:19;;;;;;;;;11.25;9.25;;;;;18.48;51.39;100796.53;5079634;28;45352;-50
2021/08/04 07:44:44;;;;;;;;;14.50;10.25;;;;;18.55;51.73;100805.09;5079942;28;45362;-47
2021/08/04 07:47:11;;;;;;;;;12.00;11.00;;;;;18.61;51.55;100799.47;5079976;28;45297;-47
2021/08/04 07:49:36;;;;;;;;;17.50;12.25;;;;;18.67;51.44;100799.19;5082240;28;45444;-49
2021/08/04 07:52:02;;;;;;;;;10.00;10.00;;;;;18.71;51.50;100792.78;5082914;27;45347;-48
2021/08/04 07:54:27;;;;;;;;;10.00;9.25;;;;;18.80;51.39;100799.47;5083566;28;45219;-49
2021/08/04 07:56:52;;;;;;;;;9.75;9.50;;;;;18.86;51.35;100796.50;5083377;28;45199;-50
2021/08/04 07:59:18;;;;;;;;;10.75;8.75;;;;;18.93;51.30;100807.75;5083621;28;45206;-49
2021/08/04 08:01:44;;;;;;;;;12.25;12.25;;;;;19.01;51.41;100808.25;5083165;27;47143;-47
2021/08/04 08:04:09;;;;;;;;;8.25;7.00;;;;;19.06;51.54;100803.56;5083360;28;45220;-47
2021/08/04 08:06:35;;;;;;;;;9.75;9.00;;;;;19.14;51.26;100805.84;5083146;28;45196;-52
2021/08/04 08:09:00;;;;;;;;;9.75;9.50;;;;;19.22;51.35;100801.03;5083217;28;45493;-50
2021/08/04 08:11:26;;;;;;;;;26.25;25.00;;;;;19.28;51.27;100805.16;5083108;27;45436;-49
2021/08/04 08:13:51;;;;;;;;;10.25;8.00;;;;;19.35;51.29;100801.25;5083105;28;45264;-49
2021/08/04 08:16:17;;;;;;;;;10.50;7.00;;;;;19.43;51.23;100804.41;5081901;28;45235;-49
2021/08/04 08:18:42;;;;;;;;;8.25;6.50;;;;;19.49;51.15;100804.06;5083240;28;45363;-48
2021/08/04 08:21:08;;;;;;;;;6.25;6.25;;;;;19.57;51.20;100795.72;5082698;27;45596;-50
2021/08/04 08:23:33;;;;;;;;;9.00;8.25;;;;;19.63;51.45;100790.09;5082889;28;45364;-48
2021/08/04 08:25:58;;;;;;;;;8.75;8.00;;;;;19.71;50.76;100796.78;5083019;28;45377;-49
2021/08/04 08:28:24;;;;;;;;;11.25;8.25;;;;;19.77;51.17;100786.69;5082765;28;45383;-50
2021/08/04 08:30:49;;;;;;;;;9.00;9.00;;;;;19.83;51.13;100790.00;5082612;27;45350;-51
2021/08/04 08:33:15;;;;;;;;;6.25;6.25;;;;;19.89;50.92;100792.38;5082973;28;45366;-51
2021/08/04 08:35:40;;;;;;;;;8.75;8.75;;;;;19.94;50.94;100795.66;5081558;28;45393;-49
2021/08/04 08:38:06;;;;;;;;;9.50;7.00;;;;;19.95;50.88;100789.38;5081328;28;45628;-50
2021/08/04 08:40:31;;;;;;;;;5.75;5.50;;;;;20.04;50.56;100794.22;5082607;28;45482;-49
2021/08/04 08:42:57;;;;;;;;;8.00;7.00;;;;;20.09;50.28;100793.97;5082818;28;45265;-48
2021/08/04 08:45:22;;;;;;;;;7.25;7.00;;;;;20.11;50.40;100794.72;5082739;28;45292;-47
2021/08/04 08:47:48;;;;;;;;;7.75;7.75;;;;;20.16;50.20;100794.50;5082922;27;45344;-50
2021/08/04 08:50:14;;;;;;;;;5.00;4.50;;;;;20.19;50.46;100791.66;5081024;27;48145;-50
2021/08/04 08:52:40;;;;;;;;;8.00;7.25;;;;;20.22;50.30;100786.16;5082752;28;45322;-51
2021/08/04 08:55:08;;;;;;;;;6.25;6.25;;;;;20.25;50.19;100789.53;5082414;28;45331;-49
2021/08/04 08:57:34;;;;;;;;;4.25;4.25;;;;;20.33;50.04;100788.25;5082613;28;45456;-49
2021/08/04 09:00:00;;;;;;;;;7.00;6.00;;;;;20.38;49.69;100789.72;5081168;28;46345;-49
2021/08/04 09:02:27;;;;;;;;;6.00;5.00;;;;;20.45;50.00;100787.56;5082355;28;45290;-49
2021/08/04 09:05:04;;;;;;;;;8.25;6.00;;;;;20.52;49.65;100793.44;5082434;28;45254;-48
2021/08/04 09:07:35;;;;;;;;;9.00;7.75;;;;;20.57;49.88;100786.91;5082287;28;45179;-49
2021/08/04 09:10:18;;;;;;;;;6.00;6.00;;;;;20.65;50.11;100794.47;5081945;28;45764;-51
2021/08/04 09:12:48;;;;;;;;;5.00;5.00;;;;;20.71;49.88;100796.84;5082125;28;45392;-48
2021/08/04 09:15:28;;;;;;;;;4.75;4.75;;;;;20.76;49.67;100784.09;5082608;28;45244;-49
2021/08/04 09:18:09;;;;;;;;;6.75;6.75;;;;;20.82;49.71;100790.03;5082031;28;45410;-51
2021/08/04 09:20:57;;;;;;;;;5.25;4.25;;;;;20.91;49.57;100794.88;5080895;27;45270;-50
2021/08/04 09:23:27;;;;;;;;;6.50;6.00;;;;;20.98;49.12;100787.34;5067472;28;45500;-50
2021/08/04 09:26:05;;;;;;;;;6.75;6.75;;;;;21.03;49.08;100787.94;5080931;28;45269;-51
2021/08/04 09:28:31;;;;;;;;;5.00;5.00;;;;;21.08;49.62;100781.41;5081901;28;45307;-51
2021/08/04 09:31:03;;;;;;;;;4.50;4.50;;;;;21.15;49.03;100786.41;5081750;27;46457;-49
2021/08/04 09:33:38;;;;;;;;;7.00;6.75;;;;;21.18;48.87;100780.84;5080546;28;45366;-51
2021/08/04 09:36:04;;;;;;;;;9.50;6.50;;;;;21.24;48.95;100777.84;5081870;27;45228;-50
2021/08/04 09:38:30;;;;;;;;;5.00;3.00;;;;;21.30;48.91;100771.28;5080350;28;45416;-52
2021/08/04 09:41:17;;;;;;;;;6.00;6.00;;;;;21.34;48.44;100775.50;5081424;27;46159;-48
2021/08/04 09:43:51;;;;;;;;;6.75;5.50;;;;;21.38;48.42;100774.34;5081602;27;45339;-50
2021/08/04 09:46:34;;;;;;;;;8.50;6.25;;;;;21.44;48.80;100773.97;5081751;28;45250;-51
2021/08/04 09:49:17;;;;;;;;;5.50;5.00;;;;;21.51;48.33;100756.63;5081499;28;45245;-51
2021/08/04 09:51:43;;;;;;;;;6.75;5.75;;;;;21.58;48.24;100767.84;5081168;27;46347;-50
2021/08/04 09:54:11;;;;;;;;;7.50;6.00;;;;;21.65;48.72;100763.84;5080357;28;45422;-51
2021/08/04 09:56:57;;;;;;;;;6.50;6.25;;;;;21.77;47.94;100761.38;5081537;28;45178;-51
2021/08/04 09:59:23;;;;;;;;;5.00;5.00;;;;;21.89;48.47;100760.63;5081699;28;45360;-53
2021/08/04 10:01:49;;;;;;;;;3.50;3.50;;;;;21.98;48.37;100757.38;5079921;28;46356;-52
2021/08/04 10:04:15;;;;;;;;;5.00;5.00;;;;;22.08;48.46;100763.88;5081545;28;45318;-52
2021/08/04 10:06:43;;;;;;;;;7.00;4.00;;;;;22.21;48.04;100768.47;5079955;28;45268;-50
2021/08/04 10:09:14;;;;;;;;;6.00;4.00;;;;;22.31;47.86;100760.72;5080238;28;45260;-53
2021/08/04 10:11:47;;;;;;;;;8.50;8.50;;;;;22.42;47.82;100762.75;5079173;27;47462;-52
2021/08/04 10:14:16;;;;;;;;;4.50;4.50;;;;;22.51;47.86;100759.50;5081196;28;45243;-53
2021/08/04 10:16:42;;;;;;;;;5.00;5.00;;;;;22.58;48.11;100755.47;5081164;28;45348;-52
2021/08/04 10:19:08;;;;;;;;;5.25;5.25;;;;;22.67;47.84;100749.50;5081296;28;45452;-47
2021/08/04 10:21:35;;;;;;;;;4.00;4.00;;;;;22.76;47.41;100755.22;5080572;27;45263;-51
2021/08/04 10:24:03;;;;;;;;;5.75;4.50;;;;;22.83;47.66;100748.50;5081319;28;45205;-50
2021/08/04 10:26:29;;;;;;;;;5.75;4.50;;;;;22.88;47.43;100744.56;5081016;28;45306;-52
2021/08/04 10:28:58;;;;;;;;;4.25;4.00;;;;;22.98;47.22;100743.94;5080779;28;45514;-50
2021/08/04 10:31:25;;;;;;;;;5.50;5.00;;;;;23.07;47.10;100750.50;5080857;27;45290;-50
2021/08/04 10:33:50;;;;;;;;;5.00;5.00;;;;;23.16;46.90;100744.59;5080718;28;45200;-52
2021/08/04 10:36:19;;;;;;;;;5.00;5.00;;;;;23.25;47.07;100738.59;5080675;27;45202;-49
2021/08/04 10:38:57;;;;;;;;;5.50;4.75;;;;;23.36;46.69;100737.88;5081015;28;45331;-51
2021/08/04 10:41:25;;;;;;;;;4.75;4.00;;;;;23.45;46.86;100737.22;5080826;28;45673;-51
2021/08/04 10:43:51;;;;;;;;;3.50;3.50;;;;;23.56;46.79;100735.63;5080758;28;45339;-52
2021/08/04 10:48:55;;;;;;;;;5.75;5.75;;;;;23.73;46.58;100742.50;5080498;28;45250;-52
2021/08/04 10:51:20;;;;;;;;;7.25;7.00;;;;;23.83;46.70;100739.06;5080491;27;45374;-51
2021/08/04 10:54:15;;;;;;;;;6.00;6.00;;;;;23.94;46.60;100740.19;5080652;28;45410;-49
2021/08/04 10:56:43;;;;;;;;;5.00;5.00;;;;;24.01;46.46;100745.00;5071323;28;45318;-52
2021/08/04 10:59:08;;;;;;;;;4.00;4.00;;;;;24.06;46.30;100741.97;5080610;28;45162;-51
2021/08/04 11:01:54;;;;;;;;;6.00;6.00;;;;;24.08;46.31;100737.38;5080304;27;46215;-52
2021/08/04 11:04:28;;;;;;;;;5.00;5.00;;;;;24.14;46.57;100741.44;5080722;28;45254;-50
2021/08/04 11:07:09;;;;;;;;;7.00;6.00;;;;;24.17;46.34;100742.06;5078985;28;45440;-48
2021/08/04 11:09:42;;;;;;;;;9.25;9.25;;;;;24.20;46.25;100745.50;5080255;28;45249;-52
2021/08/04 11:12:16;;;;;;;;;7.00;6.25;;;;;24.18;45.96;100742.94;5080350;28;45954;-50
2021/08/04 11:14:55;;;;;;;;;4.25;4.00;;;;;24.20;45.97;100748.19;5078990;28;45332;-47
2021/08/04 11:17:20;;;;;;;;;6.25;5.00;;;;;24.17;45.85;100746.59;5080520;28;45310;-49
2021/08/04 11:22:46;;;;;;;;;8.00;7.25;;;;;24.12;45.66;100751.44;5080165;28;45331;-52
2021/08/04 11:25:42;;;;;;;;;4.75;4.00;;;;;24.02;45.65;100754.78;5080110;28;45224;-51
2021/08/04 11:28:13;;;;;;;;;5.50;5.00;;;;;23.98;45.63;100761.31;5080119;28;45681;-52